sensor_id;sensor_type;location;lat;lon;timestamp;pressure;altitude;pressure_sealevel;temperature;humidity
61568;BME280;47462;59.172;17.196;2023-11-21T00:01:57;101455.75;;;0.30;93.93
61568;BME280;47462;59.172;17.196;2023-11-21T00:04:23;101458.28;;;0.29;93.93
61568;BME280;47462;59.172;17.196;2023-11-21T00:06:49;101448.84;;;0.28;94.07
61568;BME280;47462;59.172;17.196;2023-11-21T00:09:15;101454.06;;;0.31;94.00
61568;BME280;47462;59.172;17.196;2023-11-21T00:11:43;101460.16;;;0.34;94.30
61568;BME280;47462;59.172;17.196;2023-11-21T00:14:10;101459.28;;;0.34;94.41
61568;BME280;47462;59.172;17.196;2023-11-21T00:16:36;101450.66;;;0.32;94.70
61568;BME280;47462;59.172;17.196;2023-11-21T00:19:02;101459.44;;;0.40;94.42
61568;BME280;47462;59.172;17.196;2023-11-21T00:21:27;101460.44;;;0.47;94.63
61568;BME280;47462;59.172;17.196;2023-11-21T00:23:53;101461.38;;;0.50;94.77
61568;BME280;47462;59.172;17.196;2023-11-21T00:26:18;101464.00;;;0.52;94.70
61568;BME280;47462;59.172;17.196;2023-11-21T00:28:44;101468.50;;;0.61;94.97
61568;BME280;47462;59.172;17.196;2023-11-21T00:31:10;101445.38;;;0.61;95.13
61568;BME280;47462;59.172;17.196;2023-11-21T00:33:36;101450.59;;;0.64;95.25
61568;BME280;47462;59.172;17.196;2023-11-21T00:36:01;101462.69;;;0.68;95.38
61568;BME280;47462;59.172;17.196;2023-11-21T00:38:27;101455.84;;;0.68;95.47
61568;BME280;47462;59.172;17.196;2023-11-21T00:40:53;101462.00;;;0.75;95.34
61568;BME280;47462;59.172;17.196;2023-11-21T00:43:22;101459.47;;;0.77;95.57
61568;BME280;47462;59.172;17.196;2023-11-21T00:45:47;101458.66;;;0.79;95.30
61568;BME280;47462;59.172;17.196;2023-11-21T00:48:14;101468.97;;;0.81;95.85
61568;BME280;47462;59.172;17.196;2023-11-21T00:50:40;101458.66;;;0.79;95.48
61568;BME280;47462;59.172;17.196;2023-11-21T00:53:05;101467.28;;;0.81;95.89
61568;BME280;47462;59.172;17.196;2023-11-21T00:55:32;101479.44;;;0.88;95.35
61568;BME280;47462;59.172;17.196;2023-11-21T00:58:03;101477.72;;;0.87;95.30
61568;BME280;47462;59.172;17.196;2023-11-21T01:00:29;101482.84;;;0.87;95.36
61568;BME280;47462;59.172;17.196;2023-11-21T01:02:55;101485.41;;;0.87;95.83
61568;BME280;47462;59.172;17.196;2023-11-21T01:05:21;101480.28;;;0.87;95.68
61568;BME280;47462;59.172;17.196;2023-11-21T01:07:46;101482.72;;;0.81;95.66
61568;BME280;47462;59.172;17.196;2023-11-21T01:10:12;101489.56;;;0.82;95.95
61568;BME280;47462;59.172;17.196;2023-11-21T01:12:38;101493.94;;;0.86;95.90
61568;BME280;47462;59.172;17.196;2023-11-21T01:15:04;101497.50;;;0.92;95.92
61568;BME280;47462;59.172;17.196;2023-11-21T01:17:33;101492.41;;;0.95;96.23
61568;BME280;47462;59.172;17.196;2023-11-21T01:20:04;101498.41;;;0.94;95.83
61568;BME280;47462;59.172;17.196;2023-11-21T01:22:36;101501.88;;;0.96;96.01
61568;BME280;47462;59.172;17.196;2023-11-21T01:25:02;101505.38;;;0.99;96.07
61568;BME280;47462;59.172;17.196;2023-11-21T01:27:29;101501.06;;;0.97;95.93
61568;BME280;47462;59.172;17.196;2023-11-21T01:29:55;101511.47;;;1.03;95.96
61568;BME280;47462;59.172;17.196;2023-11-21T01:32:20;101517.50;;;1.05;96.09
61568;BME280;47462;59.172;17.196;2023-11-21T01:34:46;101517.50;;;1.05;95.90
61568;BME280;47462;59.172;17.196;2023-11-21T01:37:11;101513.16;;;1.02;95.97
61568;BME280;47462;59.172;17.196;2023-11-21T01:39:37;101511.44;;;1.01;95.83
61568;BME280;47462;59.172;17.196;2023-11-21T01:42:04;101531.25;;;1.07;96.05
61568;BME280;47462;59.172;17.196;2023-11-21T01:44:30;101523.47;;;1.04;95.80
61568;BME280;47462;59.172;17.196;2023-11-21T01:46:56;101524.38;;;1.04;95.83
61568;BME280;47462;59.172;17.196;2023-11-21T01:49:22;101526.09;;;1.05;96.01
61568;BME280;47462;59.172;17.196;2023-11-21T01:51:49;101527.94;;;1.11;96.26
61568;BME280;47462;59.172;17.196;2023-11-21T01:54:17;101534.84;;;1.12;95.72
61568;BME280;47462;59.172;17.196;2023-11-21T01:56:47;101537.41;;;1.12;95.78
61568;BME280;47462;59.172;17.196;2023-11-21T01:59:17;101535.72;;;1.14;96.00
61568;BME280;47462;59.172;17.196;2023-11-21T02:01:43;101544.06;;;1.05;95.51
61568;BME280;47462;59.172;17.196;2023-11-21T02:04:09;101530.56;;;1.13;95.58
61568;BME280;47462;59.172;17.196;2023-11-21T02:06:35;101533.91;;;1.10;95.58
61568;BME280;47462;59.172;17.196;2023-11-21T02:09:00;101539.81;;;1.06;95.92
61568;BME280;47462;59.172;17.196;2023-11-21T02:11:26;101546.47;;;0.98;95.59
61568;BME280;47462;59.172;17.196;2023-11-21T02:13:53;101546.56;;;1.02;95.83
61568;BME280;47462;59.172;17.196;2023-11-21T02:16:19;101546.56;;;1.02;95.68
61568;BME280;47462;59.172;17.196;2023-11-21T02:18:47;101545.66;;;0.99;95.66
61568;BME280;47462;59.172;17.196;2023-11-21T02:21:14;101541.19;;;0.92;96.21
61568;BME280;47462;59.172;17.196;2023-11-21T02:23:39;101547.28;;;0.95;96.15
61568;BME280;47462;59.172;17.196;2023-11-21T02:26:10;101553.28;;;0.96;96.53
61568;BME280;47462;59.172;17.196;2023-11-21T02:28:35;101557.63;;;0.98;96.66
61568;BME280;47462;59.172;17.196;2023-11-21T02:31:01;101557.53;;;0.94;96.38
61568;BME280;47462;59.172;17.196;2023-11-21T02:33:28;101561.75;;;0.92;96.04
61568;BME280;47462;59.172;17.196;2023-11-21T02:35:53;101560.16;;;0.97;96.72
61568;BME280;47462;59.172;17.196;2023-11-21T02:38:21;101563.63;;;0.99;96.24
61568;BME280;47462;59.172;17.196;2023-11-21T02:40:46;101564.41;;;0.96;96.13
61568;BME280;47462;59.172;17.196;2023-11-21T02:43:12;101566.22;;;0.99;96.38
61568;BME280;47462;59.172;17.196;2023-11-21T02:45:37;101572.94;;;0.94;96.38
61568;BME280;47462;59.172;17.196;2023-11-21T02:48:03;101564.13;;;0.84;96.27
61568;BME280;47462;59.172;17.196;2023-11-21T02:50:29;101573.56;;;0.85;96.71
61568;BME280;47462;59.172;17.196;2023-11-21T02:52:55;101577.81;;;0.83;96.82
61568;BME280;47462;59.172;17.196;2023-11-21T02:55:22;101576.84;;;0.79;96.64
61568;BME280;47462;59.172;17.196;2023-11-21T02:57:50;101594.09;;;0.83;96.76
61568;BME280;47462;59.172;17.196;2023-11-21T03:00:16;101588.88;;;0.80;96.65
61568;BME280;47462;59.172;17.196;2023-11-21T03:02:42;101588.88;;;0.80;96.91
61568;BME280;47462;59.172;17.196;2023-11-21T03:05:08;101592.44;;;0.85;96.88
61568;BME280;47462;59.172;17.196;2023-11-21T03:07:36;101592.25;;;0.79;97.17
61568;BME280;47462;59.172;17.196;2023-11-21T03:10:02;101596.56;;;0.79;97.26
61568;BME280;47462;59.172;17.196;2023-11-21T03:12:29;101612.91;;;0.82;97.04
61568;BME280;47462;59.172;17.196;2023-11-21T03:14:55;101609.59;;;0.86;97.26
61568;BME280;47462;59.172;17.196;2023-11-21T03:17:20;101605.06;;;0.78;97.15
61568;BME280;47462;59.172;17.196;2023-11-21T03:19:46;101614.56;;;0.80;97.14
61568;BME280;47462;59.172;17.196;2023-11-21T03:22:11;101618.91;;;0.81;97.42
61568;BME280;47462;59.172;17.196;2023-11-21T03:24:37;101618.94;;;0.83;97.63
61568;BME280;47462;59.172;17.196;2023-11-21T03:27:04;101618.16;;;0.87;97.58
61568;BME280;47462;59.172;17.196;2023-11-21T03:29:29;101631.06;;;0.88;97.13
61568;BME280;47462;59.172;17.196;2023-11-21T03:31:54;101623.34;;;0.88;97.04
61568;BME280;47462;59.172;17.196;2023-11-21T03:34:27;101625.09;;;0.89;97.49
61568;BME280;47462;59.172;17.196;2023-11-21T03:36:52;101630.31;;;0.93;97.07
61568;BME280;47462;59.172;17.196;2023-11-21T03:39:19;101619.09;;;0.89;97.02
61568;BME280;47462;59.172;17.196;2023-11-21T03:41:45;101626.06;;;0.95;96.95
61568;BME280;47462;59.172;17.196;2023-11-21T03:44:10;101623.41;;;0.92;97.12
61568;BME280;47462;59.172;17.196;2023-11-21T03:46:36;101630.47;;;0.99;97.37
61568;BME280;47462;59.172;17.196;2023-11-21T03:49:01;101636.44;;;0.98;96.88
61568;BME280;47462;59.172;17.196;2023-11-21T03:51:26;101640.00;;;1.03;96.99
61568;BME280;47462;59.172;17.196;2023-11-21T03:53:52;101640.03;;;1.04;96.95
61568;BME280;47462;59.172;17.196;2023-11-21T03:56:18;101642.72;;;1.09;96.78
61568;BME280;47462;59.172;17.196;2023-11-21T03:58:43;101643.56;;;1.08;96.72
61568;BME280;47462;59.172;17.196;2023-11-21T04:01:08;101651.25;;;1.08;96.42
61568;BME280;47462;59.172;17.196;2023-11-21T04:03:34;101656.25;;;1.02;96.17
61568;BME280;47462;59.172;17.196;2023-11-21T04:05:59;101648.50;;;1.00;96.68
61568;BME280;47462;59.172;17.196;2023-11-21T04:08:26;101657.19;;;1.05;96.31
61568;BME280;47462;59.172;17.196;2023-11-21T04:10:51;101644.25;;;1.02;96.84
61568;BME280;47462;59.172;17.196;2023-11-21T04:13:19;101652.84;;;1.03;96.62
61568;BME280;47462;59.172;17.196;2023-11-21T04:15:44;101659.78;;;1.07;96.39
61568;BME280;47462;59.172;17.196;2023-11-21T04:18:10;101654.41;;;0.98;96.40
61568;BME280;47462;59.172;17.196;2023-11-21T04:20:35;101650.16;;;0.98;96.46
61568;BME280;47462;59.172;17.196;2023-11-21T04:23:01;101662.97;;;0.97;96.36
61568;BME280;47462;59.172;17.196;2023-11-21T04:25:26;101664.63;;;0.95;96.12
61568;BME280;47462;59.172;17.196;2023-11-21T04:27:53;101656.88;;;0.93;96.58
61568;BME280;47462;59.172;17.196;2023-11-21T04:30:19;101648.13;;;0.86;96.49
61568;BME280;47462;59.172;17.196;2023-11-21T04:32:44;101659.44;;;0.93;96.27
61568;BME280;47462;59.172;17.196;2023-11-21T04:35:10;101678.47;;;1.00;96.29
61568;BME280;47462;59.172;17.196;2023-11-21T04:37:35;101682.72;;;0.99;96.62
61568;BME280;47462;59.172;17.196;2023-11-21T04:40:00;101687.06;;;1.00;96.31
61568;BME280;47462;59.172;17.196;2023-11-21T04:42:26;101693.13;;;1.04;96.12
61568;BME280;47462;59.172;17.196;2023-11-21T04:44:51;101678.38;;;0.95;96.30
61568;BME280;47462;59.172;17.196;2023-11-21T04:47:18;101694.69;;;0.97;96.06
61568;BME280;47462;59.172;17.196;2023-11-21T04:49:45;101697.22;;;0.96;96.16
61568;BME280;47462;59.172;17.196;2023-11-21T04:52:12;101696.41;;;0.97;95.93
61568;BME280;47462;59.172;17.196;2023-11-21T04:54:37;101688.56;;;0.92;96.07
61568;BME280;47462;59.172;17.196;2023-11-21T04:57:05;101696.31;;;0.94;95.94
61568;BME280;47462;59.172;17.196;2023-11-21T04:59:32;101699.78;;;0.96;96.48
61568;BME280;47462;59.172;17.196;2023-11-21T05:01:57;101698.88;;;0.94;96.47
61568;BME280;47462;59.172;17.196;2023-11-21T05:04:23;101692.69;;;0.87;96.25
61568;BME280;47462;59.172;17.196;2023-11-21T05:06:48;101707.41;;;0.93;95.79
61568;BME280;47462;59.172;17.196;2023-11-21T05:09:13;101712.56;;;0.93;95.85
61568;BME280;47462;59.172;17.196;2023-11-21T05:11:39;101709.84;;;0.88;95.94
61568;BME280;47462;59.172;17.196;2023-11-21T05:14:06;101707.25;;;0.86;95.64
61568;BME280;47462;59.172;17.196;2023-11-21T05:16:31;101707.91;;;0.79;95.33
61568;BME280;47462;59.172;17.196;2023-11-21T05:18:57;101717.34;;;0.80;95.29
61568;BME280;47462;59.172;17.196;2023-11-21T05:21:27;101718.13;;;0.78;95.92
61568;BME280;47462;59.172;17.196;2023-11-21T05:23:52;101733.69;;;0.82;95.70
61568;BME280;47462;59.172;17.196;2023-11-21T05:26:17;101734.63;;;0.84;95.36
61568;BME280;47462;59.172;17.196;2023-11-21T05:28:43;101726.69;;;0.77;95.37
61568;BME280;47462;59.172;17.196;2023-11-21T05:31:08;101738.53;;;0.71;95.37
61568;BME280;47462;59.172;17.196;2023-11-21T05:33:34;101741.88;;;0.69;95.55
61568;BME280;47462;59.172;17.196;2023-11-21T05:35:59;101732.16;;;0.59;95.35
61568;BME280;47462;59.172;17.196;2023-11-21T05:38:25;101732.94;;;0.56;95.40
61568;BME280;47462;59.172;17.196;2023-11-21T05:40:51;101736.28;;;0.53;95.35
61568;BME280;47462;59.172;17.196;2023-11-21T05:43:16;101742.25;;;0.52;95.43
61568;BME280;47462;59.172;17.196;2023-11-21T05:45:41;101739.69;;;0.52;95.52
61568;BME280;47462;59.172;17.196;2023-11-21T05:48:07;101744.00;;;0.53;95.43
61568;BME280;47462;59.172;17.196;2023-11-21T05:50:32;101747.28;;;0.48;95.30
61568;BME280;47462;59.172;17.196;2023-11-21T05:52:58;101754.00;;;0.44;95.56
61568;BME280;47462;59.172;17.196;2023-11-21T05:55:25;101747.81;;;0.38;95.07
61568;BME280;47462;59.172;17.196;2023-11-21T05:57:51;101759.00;;;0.40;95.59
61568;BME280;47462;59.172;17.196;2023-11-21T06:00:17;101761.69;;;0.44;95.61
61568;BME280;47462;59.172;17.196;2023-11-21T06:02:48;101766.00;;;0.45;95.42
61568;BME280;47462;59.172;17.196;2023-11-21T06:05:17;101765.94;;;0.42;94.98
61568;BME280;47462;59.172;17.196;2023-11-21T06:07:43;101778.00;;;0.45;94.59
61568;BME280;47462;59.172;17.196;2023-11-21T06:10:11;101782.06;;;0.38;94.66
61568;BME280;47462;59.172;17.196;2023-11-21T06:12:40;101777.63;;;0.32;94.67
61568;BME280;47462;59.172;17.196;2023-11-21T06:15:09;101789.63;;;0.33;94.96
61568;BME280;47462;59.172;17.196;2023-11-21T06:17:37;101797.41;;;0.37;94.71
61568;BME280;47462;59.172;17.196;2023-11-21T06:20:05;101790.41;;;0.31;94.31
61568;BME280;47462;59.172;17.196;2023-11-21T06:22:53;101800.44;;;0.23;94.79
61568;BME280;47462;59.172;17.196;2023-11-21T06:25:19;101798.84;;;0.27;95.09
61568;BME280;47462;59.172;17.196;2023-11-21T06:27:46;101808.09;;;0.22;94.72
61568;BME280;47462;59.172;17.196;2023-11-21T06:30:13;101810.69;;;0.22;94.88
61568;BME280;47462;59.172;17.196;2023-11-21T06:32:39;101815.94;;;0.26;95.24
61568;BME280;47462;59.172;17.196;2023-11-21T06:35:09;101809.94;;;0.26;95.20
61568;BME280;47462;59.172;17.196;2023-11-21T06:37:35;101816.66;;;0.22;94.66
61568;BME280;47462;59.172;17.196;2023-11-21T06:40:04;101811.59;;;0.24;94.94
61568;BME280;47462;59.172;17.196;2023-11-21T06:42:34;101815.16;;;0.29;95.11
61568;BME280;47462;59.172;17.196;2023-11-21T06:45:00;101821.19;;;0.29;95.35
61568;BME280;47462;59.172;17.196;2023-11-21T06:47:29;101823.81;;;0.31;95.10
61568;BME280;47462;59.172;17.196;2023-11-21T06:49:56;101810.81;;;0.26;95.44
61568;BME280;47462;59.172;17.196;2023-11-21T06:52:22;101832.69;;;0.42;95.43
61568;BME280;47462;59.172;17.196;2023-11-21T06:54:48;101825.75;;;0.40;95.25
61568;BME280;47462;59.172;17.196;2023-11-21T06:57:16;101843.97;;;0.47;95.22
61568;BME280;47462;59.172;17.196;2023-11-21T06:59:42;101845.09;;;0.56;95.00
61568;BME280;47462;59.172;17.196;2023-11-21T07:02:13;101857.06;;;0.55;94.89
61568;BME280;47462;59.172;17.196;2023-11-21T07:04:39;101858.03;;;0.59;95.09
61568;BME280;47462;59.172;17.196;2023-11-21T07:07:06;101859.81;;;0.61;95.09
61568;BME280;47462;59.172;17.196;2023-11-21T07:09:37;101859.72;;;0.58;94.43
61568;BME280;47462;59.172;17.196;2023-11-21T07:12:04;101866.56;;;0.58;94.24
61568;BME280;47462;59.172;17.196;2023-11-21T07:14:35;101864.00;;;0.58;94.70
61568;BME280;47462;59.172;17.196;2023-11-21T07:17:01;101870.78;;;0.56;94.20
61568;BME280;47462;59.172;17.196;2023-11-21T07:19:29;101874.06;;;0.51;94.42
61568;BME280;47462;59.172;17.196;2023-11-21T07:21:56;101872.22;;;0.47;93.80
61568;BME280;47462;59.172;17.196;2023-11-21T07:24:21;101871.22;;;0.42;93.67
61568;BME280;47462;59.172;17.196;2023-11-21T07:26:50;101868.56;;;0.39;94.19
61568;BME280;47462;59.172;17.196;2023-11-21T07:29:15;101867.50;;;0.32;93.95
61568;BME280;47462;59.172;17.196;2023-11-21T07:31:41;101875.81;;;0.25;94.08
61568;BME280;47462;59.172;17.196;2023-11-21T07:34:07;101876.63;;;0.24;94.10
61568;BME280;47462;59.172;17.196;2023-11-21T07:36:33;101883.75;;;0.33;93.95
61568;BME280;47462;59.172;17.196;2023-11-21T07:38:59;101875.06;;;0.28;93.96
61568;BME280;47462;59.172;17.196;2023-11-21T07:41:24;101886.38;;;0.34;94.27
61568;BME280;47462;59.172;17.196;2023-11-21T07:43:50;101888.91;;;0.33;93.78
61568;BME280;47462;59.172;17.196;2023-11-21T07:46:15;101878.53;;;0.30;93.73
61568;BME280;47462;59.172;17.196;2023-11-21T07:48:42;101896.81;;;0.39;93.87
61568;BME280;47462;59.172;17.196;2023-11-21T07:51:13;101896.84;;;0.41;93.94
61568;BME280;47462;59.172;17.196;2023-11-21T07:53:42;101899.47;;;0.42;94.06
61568;BME280;47462;59.172;17.196;2023-11-21T07:56:09;101904.31;;;0.33;93.23
61568;BME280;47462;59.172;17.196;2023-11-21T07:58:38;101911.09;;;0.31;94.01
61568;BME280;47462;59.172;17.196;2023-11-21T08:01:04;101903.34;;;0.29;94.02
61568;BME280;47462;59.172;17.196;2023-11-21T08:03:31;101904.81;;;0.23;93.71
61568;BME280;47462;59.172;17.196;2023-11-21T08:06:02;101916.91;;;0.25;94.07
61568;BME280;47462;59.172;17.196;2023-11-21T08:08:29;101913.50;;;0.26;94.25
61568;BME280;47462;59.172;17.196;2023-11-21T08:10:55;101923.59;;;0.20;93.94
61568;BME280;47462;59.172;17.196;2023-11-21T08:13:25;101925.34;;;0.23;94.29
61568;BME280;47462;59.172;17.196;2023-11-21T08:15:56;101921.06;;;0.22;94.32
61568;BME280;47462;59.172;17.196;2023-11-21T08:18:27;101919.47;;;0.25;94.18
61568;BME280;47462;59.172;17.196;2023-11-21T08:20:54;101921.97;;;0.24;94.50
61568;BME280;47462;59.172;17.196;2023-11-21T08:23:20;101905.47;;;0.15;94.35
61568;BME280;47462;59.172;17.196;2023-11-21T08:25:46;101935.19;;;0.34;94.45
61568;BME280;47462;59.172;17.196;2023-11-21T08:28:12;101928.81;;;0.23;93.96
61568;BME280;47462;59.172;17.196;2023-11-21T08:30:39;101935.72;;;0.26;94.40
61568;BME280;47462;59.172;17.196;2023-11-21T08:33:07;101939.44;;;0.34;94.76
61568;BME280;47462;59.172;17.196;2023-11-21T08:35:34;101937.03;;;0.39;94.50
61568;BME280;47462;59.172;17.196;2023-11-21T08:38:00;101929.06;;;0.31;94.55
61568;BME280;47462;59.172;17.196;2023-11-21T08:40:26;101943.88;;;0.40;94.42
61568;BME280;47462;59.172;17.196;2023-11-21T08:42:52;101946.41;;;0.38;94.42
61568;BME280;47462;59.172;17.196;2023-11-21T08:45:23;101938.81;;;0.41;94.48
61568;BME280;47462;59.172;17.196;2023-11-21T08:47:49;101947.50;;;0.45;94.28
61568;BME280;47462;59.172;17.196;2023-11-21T08:50:15;101944.84;;;0.42;93.79
61568;BME280;47462;59.172;17.196;2023-11-21T08:52:41;101948.25;;;0.42;93.80
61568;BME280;47462;59.172;17.196;2023-11-21T08:55:08;101955.97;;;0.42;93.55
61568;BME280;47462;59.172;17.196;2023-11-21T08:57:44;101944.72;;;0.39;93.41
61568;BME280;47462;59.172;17.196;2023-11-21T09:00:11;101947.19;;;0.35;93.62
61568;BME280;47462;59.172;17.196;2023-11-21T09:02:40;101951.53;;;0.38;93.59
61568;BME280;47462;59.172;17.196;2023-11-21T09:05:12;101962.91;;;0.45;93.41
61568;BME280;47462;59.172;17.196;2023-11-21T09:07:42;101961.06;;;0.41;93.35
61568;BME280;47462;59.172;17.196;2023-11-21T09:10:08;101969.81;;;0.47;93.16
61568;BME280;47462;59.172;17.196;2023-11-21T09:12:38;101973.25;;;0.46;93.25
61568;BME280;47462;59.172;17.196;2023-11-21T09:15:08;101975.84;;;0.48;92.87
61568;BME280;47462;59.172;17.196;2023-11-21T09:17:35;101983.50;;;0.46;92.96
61568;BME280;47462;59.172;17.196;2023-11-21T09:20:01;101978.16;;;0.40;92.72
61568;BME280;47462;59.172;17.196;2023-11-21T09:22:32;101976.47;;;0.41;93.12
61568;BME280;47462;59.172;17.196;2023-11-21T09:24:59;101979.91;;;0.41;92.63
61568;BME280;47462;59.172;17.196;2023-11-21T09:27:25;101988.38;;;0.39;92.93
61568;BME280;47462;59.172;17.196;2023-11-21T09:29:53;101990.28;;;0.44;93.06
61568;BME280;47462;59.172;17.196;2023-11-21T09:32:19;101991.31;;;0.49;92.68
61568;BME280;47462;59.172;17.196;2023-11-21T09:34:46;101978.06;;;0.37;92.30
61568;BME280;47462;59.172;17.196;2023-11-21T09:37:12;101977.22;;;0.38;92.59
61568;BME280;47462;59.172;17.196;2023-11-21T09:39:37;101966.84;;;0.35;92.79
61568;BME280;47462;59.172;17.196;2023-11-21T09:42:10;101981.66;;;0.42;92.74
61568;BME280;47462;59.172;17.196;2023-11-21T09:44:45;101992.59;;;0.37;92.62
61568;BME280;47462;59.172;17.196;2023-11-21T09:47:14;101994.34;;;0.38;92.44
61568;BME280;47462;59.172;17.196;2023-11-21T09:49:47;101988.44;;;0.40;92.28
61568;BME280;47462;59.172;17.196;2023-11-21T09:52:25;101990.13;;;0.40;92.60
61568;BME280;47462;59.172;17.196;2023-11-21T09:54:52;101999.03;;;0.49;92.63
61568;BME280;47462;59.172;17.196;2023-11-21T09:57:23;102007.19;;;0.63;92.58
61568;BME280;47462;59.172;17.196;2023-11-21T09:59:51;102006.25;;;0.61;91.87
61568;BME280;47462;59.172;17.196;2023-11-21T10:02:23;102007.03;;;0.59;91.82
61568;BME280;47462;59.172;17.196;2023-11-21T10:04:51;101999.44;;;0.62;92.40
61568;BME280;47462;59.172;17.196;2023-11-21T10:07:19;102004.97;;;0.74;92.03
61568;BME280;47462;59.172;17.196;2023-11-21T10:09:46;102013.50;;;0.73;91.23
61568;BME280;47462;59.172;17.196;2023-11-21T10:12:15;102010.97;;;0.75;91.80
61568;BME280;47462;59.172;17.196;2023-11-21T10:14:41;102010.22;;;0.77;91.62
61568;BME280;47462;59.172;17.196;2023-11-21T10:17:08;102015.44;;;0.80;91.02
61568;BME280;47462;59.172;17.196;2023-11-21T10:19:38;102015.34;;;0.77;91.02
61568;BME280;47462;59.172;17.196;2023-11-21T10:22:07;102022.34;;;0.81;90.70
61568;BME280;47462;59.172;17.196;2023-11-21T10:24:33;102022.16;;;0.75;90.60
61568;BME280;47462;59.172;17.196;2023-11-21T10:26:59;102021.94;;;0.69;90.71
61568;BME280;47462;59.172;17.196;2023-11-21T10:29:29;102017.50;;;0.65;90.80
61568;BME280;47462;59.172;17.196;2023-11-21T10:31:55;102022.72;;;0.66;90.63
61568;BME280;47462;59.172;17.196;2023-11-21T10:34:24;102022.44;;;0.59;90.77
61568;BME280;47462;59.172;17.196;2023-11-21T10:36:49;102025.03;;;0.59;90.34
61568;BME280;47462;59.172;17.196;2023-11-21T10:39:21;102033.63;;;0.61;90.63
61568;BME280;47462;59.172;17.196;2023-11-21T10:41:49;102036.22;;;0.61;90.25
61568;BME280;47462;59.172;17.196;2023-11-21T10:44:20;102034.25;;;0.53;90.56
61568;BME280;47462;59.172;17.196;2023-11-21T10:46:55;102038.63;;;0.56;90.71
61568;BME280;47462;59.172;17.196;2023-11-21T10:49:25;102044.53;;;0.53;90.55
61568;BME280;47462;59.172;17.196;2023-11-21T10:51:55;102037.72;;;0.54;90.87
61568;BME280;47462;59.172;17.196;2023-11-21T10:54:22;102041.19;;;0.56;90.62
61568;BME280;47462;59.172;17.196;2023-11-21T10:56:50;102034.78;;;0.43;90.66
61568;BME280;47462;59.172;17.196;2023-11-21T10:59:19;102046.00;;;0.47;91.02
61568;BME280;47462;59.172;17.196;2023-11-21T11:01:51;102048.53;;;0.45;91.02
61568;BME280;47462;59.172;17.196;2023-11-21T11:04:19;102038.97;;;0.41;91.06
61568;BME280;47462;59.172;17.196;2023-11-21T11:06:48;102038.38;;;0.48;90.84
61568;BME280;47462;59.172;17.196;2023-11-21T11:09:17;102043.78;;;0.32;90.20
61568;BME280;47462;59.172;17.196;2023-11-21T11:11:43;102047.50;;;0.40;90.95
61568;BME280;47462;59.172;17.196;2023-11-21T11:14:12;102057.16;;;0.47;90.71
61568;BME280;47462;59.172;17.196;2023-11-21T11:16:39;102049.28;;;0.43;90.85
61568;BME280;47462;59.172;17.196;2023-11-21T11:19:09;102050.06;;;0.40;90.51
61568;BME280;47462;59.172;17.196;2023-11-21T11:34:53;102072.44;;;0.19;90.12
61568;BME280;47462;59.172;17.196;2023-11-21T11:37:22;102089.56;;;0.20;90.68
61568;BME280;47462;59.172;17.196;2023-11-21T11:39:49;102085.16;;;0.15;90.52
61568;BME280;47462;59.172;17.196;2023-11-21T11:42:16;102091.28;;;0.19;91.01
61568;BME280;47462;59.172;17.196;2023-11-21T11:47:25;102085.50;;;0.25;91.20
61568;BME280;47462;59.172;17.196;2023-11-21T11:50:07;102098.59;;;0.32;91.15
61568;BME280;47462;59.172;17.196;2023-11-21T11:52:38;102095.13;;;0.32;90.45
61568;BME280;47462;59.172;17.196;2023-11-21T11:55:10;102096.03;;;0.32;90.30
61568;BME280;47462;59.172;17.196;2023-11-21T11:57:36;102096.69;;;0.27;90.83
61568;BME280;47462;59.172;17.196;2023-11-21T12:02:59;102100.59;;;0.41;90.48
61568;BME280;47462;59.172;17.196;2023-11-21T12:05:27;102093.78;;;0.42;90.33
61568;BME280;47462;59.172;17.196;2023-11-21T12:07:57;102104.22;;;0.46;90.15
61568;BME280;47462;59.172;17.196;2023-11-21T12:10:27;102106.47;;;0.37;89.98
61568;BME280;47462;59.172;17.196;2023-11-21T12:12:55;102106.53;;;0.39;90.19
61568;BME280;47462;59.172;17.196;2023-11-21T12:15:28;102116.19;;;0.46;90.07
61568;BME280;47462;59.172;17.196;2023-11-21T12:17:56;102131.03;;;0.55;90.52
61568;BME280;47462;59.172;17.196;2023-11-21T12:20:23;102126.88;;;0.58;90.00
61568;BME280;47462;59.172;17.196;2023-11-21T12:22:58;102124.94;;;0.51;89.71
61568;BME280;47462;59.172;17.196;2023-11-21T12:25:30;102131.53;;;0.44;89.58
61568;BME280;47462;59.172;17.196;2023-11-21T12:28:00;102128.63;;;0.35;89.65
61568;BME280;47462;59.172;17.196;2023-11-21T12:30:34;102131.94;;;0.31;89.80
61568;BME280;47462;59.172;17.196;2023-11-21T12:33:01;102124.25;;;0.08;89.75
61568;BME280;47462;59.172;17.196;2023-11-21T12:35:29;102123.91;;;-0.01;90.71
61568;BME280;47462;59.172;17.196;2023-11-21T12:37:56;102116.56;;;-0.14;90.84
61568;BME280;47462;59.172;17.196;2023-11-21T12:40:25;102114.28;;;-0.07;91.13
61568;BME280;47462;59.172;17.196;2023-11-21T12:42:56;102126.06;;;0.11;91.35
61568;BME280;47462;59.172;17.196;2023-11-21T12:45:23;102122.38;;;0.04;90.90
61568;BME280;47462;59.172;17.196;2023-11-21T12:47:54;102134.75;;;0.14;90.94
61568;BME280;47462;59.172;17.196;2023-11-21T12:50:24;102131.25;;;0.12;91.11
61568;BME280;47462;59.172;17.196;2023-11-21T12:52:54;102138.22;;;0.16;91.06
61568;BME280;47462;59.172;17.196;2023-11-21T12:55:23;102137.88;;;0.07;90.66
61568;BME280;47462;59.172;17.196;2023-11-21T12:57:54;102142.78;;;0.01;91.24
61568;BME280;47462;59.172;17.196;2023-11-21T13:00:28;102139.31;;;-0.01;91.14
61568;BME280;47462;59.172;17.196;2023-11-21T13:02:55;102135.09;;;0.01;91.55
61568;BME280;47462;59.172;17.196;2023-11-21T13:05:26;102138.84;;;0.09;91.54
61568;BME280;47462;59.172;17.196;2023-11-21T13:07:53;102136.28;;;0.09;91.98
61568;BME280;47462;59.172;17.196;2023-11-21T13:10:22;102140.47;;;0.07;91.68